sensor_id;sensor_type;location;lat;lon;timestamp;temperature;humidity
61979;DHT22;47938;48.176;16.414;2022-08-01T00:00:20;21.40;61.30
61979;DHT22;47938;48.176;16.414;2022-08-01T00:02:45;21.30;62.50
61979;DHT22;47938;48.176;16.414;2022-08-01T00:05:11;21.20;61.40
61979;DHT22;47938;48.176;16.414;2022-08-01T00:07:36;21.20;61.60
61979;DHT22;47938;48.176;16.414;2022-08-01T00:10:02;21.20;63.20
61979;DHT22;47938;48.176;16.414;2022-08-01T00:12:28;21.10;62.20
61979;DHT22;47938;48.176;16.414;2022-08-01T00:14:53;21.10;62.20
61979;DHT22;47938;48.176;16.414;2022-08-01T00:17:19;21.00;62.40
61979;DHT22;47938;48.176;16.414;2022-08-01T00:19:44;21.00;62.90
61979;DHT22;47938;48.176;16.414;2022-08-01T00:22:10;21.00;63.10
61979;DHT22;47938;48.176;16.414;2022-08-01T00:24:35;21.00;63.20
61979;DHT22;47938;48.176;16.414;2022-08-01T00:27:01;21.00;63.10
61979;DHT22;47938;48.176;16.414;2022-08-01T00:29:26;21.10;63.30
61979;DHT22;47938;48.176;16.414;2022-08-01T00:31:52;21.10;63.10
61979;DHT22;47938;48.176;16.414;2022-08-01T00:34:17;21.10;63.00
61979;DHT22;47938;48.176;16.414;2022-08-01T00:36:43;21.20;62.90
61979;DHT22;47938;48.176;16.414;2022-08-01T00:39:08;21.20;62.90
61979;DHT22;47938;48.176;16.414;2022-08-01T00:41:34;21.20;62.70
61979;DHT22;47938;48.176;16.414;2022-08-01T00:44:02;21.20;62.60
61979;DHT22;47938;48.176;16.414;2022-08-01T00:46:27;21.30;62.50
61979;DHT22;47938;48.176;16.414;2022-08-01T00:48:52;21.30;62.70
61979;DHT22;47938;48.176;16.414;2022-08-01T00:51:18;21.30;62.50
61979;DHT22;47938;48.176;16.414;2022-08-01T00:53:44;21.30;62.70
61979;DHT22;47938;48.176;16.414;2022-08-01T00:56:09;21.40;62.50
61979;DHT22;47938;48.176;16.414;2022-08-01T00:58:35;21.40;62.70
61979;DHT22;47938;48.176;16.414;2022-08-01T01:01:00;21.40;62.80
61979;DHT22;47938;48.176;16.414;2022-08-01T01:03:26;21.30;62.90
61979;DHT22;47938;48.176;16.414;2022-08-01T01:05:56;21.30;63.00
61979;DHT22;47938;48.176;16.414;2022-08-01T01:08:27;21.30;63.00
61979;DHT22;47938;48.176;16.414;2022-08-01T01:11:01;21.30;63.10
61979;DHT22;47938;48.176;16.414;2022-08-01T01:13:34;21.40;62.80
61979;DHT22;47938;48.176;16.414;2022-08-01T01:16:19;21.40;62.60
61979;DHT22;47938;48.176;16.414;2022-08-01T01:18:51;21.40;63.40
61979;DHT22;47938;48.176;16.414;2022-08-01T01:29:16;21.50;62.50
61979;DHT22;47938;48.176;16.414;2022-08-01T01:31:50;21.50;62.50
61979;DHT22;47938;48.176;16.414;2022-08-01T01:34:17;21.50;62.50
61979;DHT22;47938;48.176;16.414;2022-08-01T01:36:43;21.50;62.50
61979;DHT22;47938;48.176;16.414;2022-08-01T01:39:09;21.50;62.60
61979;DHT22;47938;48.176;16.414;2022-08-01T01:41:36;21.50;62.70
61979;DHT22;47938;48.176;16.414;2022-08-01T01:44:02;21.50;62.50
61979;DHT22;47938;48.176;16.414;2022-08-01T01:46:28;21.50;62.50
61979;DHT22;47938;48.176;16.414;2022-08-01T01:48:55;21.50;62.70
61979;DHT22;47938;48.176;16.414;2022-08-01T01:51:22;21.50;63.00
61979;DHT22;47938;48.176;16.414;2022-08-01T01:53:48;21.40;62.90
61979;DHT22;47938;48.176;16.414;2022-08-01T01:56:14;21.40;63.10
61979;DHT22;47938;48.176;16.414;2022-08-01T01:58:41;21.40;63.20
61979;DHT22;47938;48.176;16.414;2022-08-01T02:01:07;21.40;63.20
61979;DHT22;47938;48.176;16.414;2022-08-01T02:03:34;21.40;63.20
61979;DHT22;47938;48.176;16.414;2022-08-01T02:06:00;21.40;63.10
61979;DHT22;47938;48.176;16.414;2022-08-01T02:08:26;21.40;63.50
61979;DHT22;47938;48.176;16.414;2022-08-01T02:10:53;21.50;63.00
61979;DHT22;47938;48.176;16.414;2022-08-01T02:13:18;21.40;63.00
61979;DHT22;47938;48.176;16.414;2022-08-01T02:15:44;21.40;63.10
61979;DHT22;47938;48.176;16.414;2022-08-01T02:18:09;21.40;63.00
61979;DHT22;47938;48.176;16.414;2022-08-01T02:20:36;21.40;63.00
61979;DHT22;47938;48.176;16.414;2022-08-01T02:23:11;21.50;63.00
61979;DHT22;47938;48.176;16.414;2022-08-01T02:25:42;21.50;62.80
61979;DHT22;47938;48.176;16.414;2022-08-01T02:28:43;21.50;62.50
61979;DHT22;47938;48.176;16.414;2022-08-01T02:31:02;21.50;62.50
61979;DHT22;47938;48.176;16.414;2022-08-01T02:33:38;21.50;62.40
61979;DHT22;47938;48.176;16.414;2022-08-01T02:36:04;21.50;62.20
61979;DHT22;47938;48.176;16.414;2022-08-01T02:38:32;21.60;62.40
61979;DHT22;47938;48.176;16.414;2022-08-01T02:40:58;21.60;61.80
61979;DHT22;47938;48.176;16.414;2022-08-01T02:43:26;21.60;61.80
61979;DHT22;47938;48.176;16.414;2022-08-01T02:45:53;21.60;61.60
61979;DHT22;47938;48.176;16.414;2022-08-01T02:48:19;21.60;61.70
61979;DHT22;47938;48.176;16.414;2022-08-01T02:50:47;21.60;61.60
61979;DHT22;47938;48.176;16.414;2022-08-01T02:53:13;21.60;61.50
61979;DHT22;47938;48.176;16.414;2022-08-01T02:55:40;21.60;61.40
61979;DHT22;47938;48.176;16.414;2022-08-01T02:58:06;21.60;61.40
61979;DHT22;47938;48.176;16.414;2022-08-01T03:00:32;21.60;61.30
61979;DHT22;47938;48.176;16.414;2022-08-01T03:02:58;21.60;61.20
61979;DHT22;47938;48.176;16.414;2022-08-01T03:05:25;21.60;61.20
61979;DHT22;47938;48.176;16.414;2022-08-01T03:07:51;21.60;61.20
61979;DHT22;47938;48.176;16.414;2022-08-01T03:10:17;21.60;60.90
61979;DHT22;47938;48.176;16.414;2022-08-01T03:12:43;21.60;61.20
61979;DHT22;47938;48.176;16.414;2022-08-01T03:15:09;21.60;61.20
61979;DHT22;47938;48.176;16.414;2022-08-01T03:17:35;21.60;61.20
61979;DHT22;47938;48.176;16.414;2022-08-01T03:20:02;21.60;61.20
61979;DHT22;47938;48.176;16.414;2022-08-01T03:22:29;21.60;61.20
61979;DHT22;47938;48.176;16.414;2022-08-01T03:24:56;21.60;60.90
61979;DHT22;47938;48.176;16.414;2022-08-01T03:27:23;21.60;60.80
61979;DHT22;47938;48.176;16.414;2022-08-01T03:29:48;21.70;60.50
61979;DHT22;47938;48.176;16.414;2022-08-01T03:32:15;21.70;60.40
61979;DHT22;47938;48.176;16.414;2022-08-01T03:34:41;21.70;60.00
61979;DHT22;47938;48.176;16.414;2022-08-01T03:37:29;21.70;59.70
61979;DHT22;47938;48.176;16.414;2022-08-01T03:40:09;21.70;59.70
61979;DHT22;47938;48.176;16.414;2022-08-01T03:42:37;21.80;59.50
61979;DHT22;47938;48.176;16.414;2022-08-01T03:45:08;21.80;59.40
61979;DHT22;47938;48.176;16.414;2022-08-01T03:47:35;21.80;59.40
61979;DHT22;47938;48.176;16.414;2022-08-01T03:50:02;21.80;59.20
61979;DHT22;47938;48.176;16.414;2022-08-01T03:52:28;21.90;58.80
61979;DHT22;47938;48.176;16.414;2022-08-01T03:54:55;21.90;58.80
61979;DHT22;47938;48.176;16.414;2022-08-01T03:57:21;22.00;58.50
61979;DHT22;47938;48.176;16.414;2022-08-01T03:59:48;22.00;58.20
61979;DHT22;47938;48.176;16.414;2022-08-01T04:02:14;22.00;58.20
61979;DHT22;47938;48.176;16.414;2022-08-01T04:04:39;22.00;57.90
61979;DHT22;47938;48.176;16.414;2022-08-01T04:07:05;22.10;57.70
61979;DHT22;47938;48.176;16.414;2022-08-01T04:09:45;22.10;57.70
61979;DHT22;47938;48.176;16.414;2022-08-01T04:12:11;22.10;57.70
61979;DHT22;47938;48.176;16.414;2022-08-01T04:14:36;22.10;57.70
61979;DHT22;47938;48.176;16.414;2022-08-01T04:17:02;22.20;57.70
61979;DHT22;47938;48.176;16.414;2022-08-01T04:19:27;22.20;57.00
61979;DHT22;47938;48.176;16.414;2022-08-01T04:21:53;22.30;56.80
61979;DHT22;47938;48.176;16.414;2022-08-01T04:24:18;22.30;57.90
61979;DHT22;47938;48.176;16.414;2022-08-01T04:26:45;22.30;58.80
61979;DHT22;47938;48.176;16.414;2022-08-01T04:29:11;22.30;59.00
61979;DHT22;47938;48.176;16.414;2022-08-01T04:31:38;22.40;58.80
61979;DHT22;47938;48.176;16.414;2022-08-01T04:34:07;22.40;59.10
61979;DHT22;47938;48.176;16.414;2022-08-01T04:36:35;22.40;59.30
61979;DHT22;47938;48.176;16.414;2022-08-01T04:39:02;22.40;59.30
61979;DHT22;47938;48.176;16.414;2022-08-01T04:41:27;22.40;59.00
61979;DHT22;47938;48.176;16.414;2022-08-01T04:43:54;22.50;59.10
61979;DHT22;47938;48.176;16.414;2022-08-01T04:46:20;22.50;58.80
61979;DHT22;47938;48.176;16.414;2022-08-01T04:48:46;22.50;58.60
61979;DHT22;47938;48.176;16.414;2022-08-01T04:51:15;22.50;58.40
61979;DHT22;47938;48.176;16.414;2022-08-01T04:53:41;22.50;58.40
61979;DHT22;47938;48.176;16.414;2022-08-01T04:56:06;22.60;58.50
61979;DHT22;47938;48.176;16.414;2022-08-01T04:58:32;22.70;58.10
61979;DHT22;47938;48.176;16.414;2022-08-01T05:00:57;22.70;57.80
61979;DHT22;47938;48.176;16.414;2022-08-01T05:03:23;22.90;57.40
61979;DHT22;47938;48.176;16.414;2022-08-01T05:05:48;23.00;57.00
61979;DHT22;47938;48.176;16.414;2022-08-01T05:08:14;23.00;56.70
61979;DHT22;47938;48.176;16.414;2022-08-01T05:10:39;23.10;56.70
61979;DHT22;47938;48.176;16.414;2022-08-01T05:13:05;23.10;56.30
61979;DHT22;47938;48.176;16.414;2022-08-01T05:15:30;23.10;56.00
61979;DHT22;47938;48.176;16.414;2022-08-01T05:17:56;23.20;55.80
61979;DHT22;47938;48.176;16.414;2022-08-01T05:20:21;23.30;55.10
61979;DHT22;47938;48.176;16.414;2022-08-01T05:22:47;23.30;55.10
61979;DHT22;47938;48.176;16.414;2022-08-01T05:25:12;23.40;54.40
61979;DHT22;47938;48.176;16.414;2022-08-01T05:27:37;23.40;54.30
61979;DHT22;47938;48.176;16.414;2022-08-01T05:30:03;23.40;54.50
61979;DHT22;47938;48.176;16.414;2022-08-01T05:32:29;23.30;54.50
61979;DHT22;47938;48.176;16.414;2022-08-01T05:34:54;23.40;54.50
61979;DHT22;47938;48.176;16.414;2022-08-01T05:37:20;23.40;54.30
61979;DHT22;47938;48.176;16.414;2022-08-01T05:39:45;23.40;54.00
61979;DHT22;47938;48.176;16.414;2022-08-01T05:42:11;23.50;54.00
61979;DHT22;47938;48.176;16.414;2022-08-01T05:44:36;23.40;54.10
61979;DHT22;47938;48.176;16.414;2022-08-01T05:47:02;23.50;53.80
61979;DHT22;47938;48.176;16.414;2022-08-01T05:49:27;23.60;53.90
61979;DHT22;47938;48.176;16.414;2022-08-01T05:51:53;23.60;53.60
61979;DHT22;47938;48.176;16.414;2022-08-01T05:54:18;23.70;53.30
61979;DHT22;47938;48.176;16.414;2022-08-01T05:56:44;23.80;53.00
61979;DHT22;47938;48.176;16.414;2022-08-01T05:59:09;23.90;53.00
61979;DHT22;47938;48.176;16.414;2022-08-01T06:01:35;23.90;52.90
61979;DHT22;47938;48.176;16.414;2022-08-01T06:04:00;24.00;52.70
61979;DHT22;47938;48.176;16.414;2022-08-01T06:06:26;24.00;52.10
61979;DHT22;47938;48.176;16.414;2022-08-01T06:08:51;24.10;52.10
61979;DHT22;47938;48.176;16.414;2022-08-01T06:11:17;24.20;51.90
61979;DHT22;47938;48.176;16.414;2022-08-01T06:13:42;24.20;51.80
61979;DHT22;47938;48.176;16.414;2022-08-01T06:16:08;24.30;51.40
61979;DHT22;47938;48.176;16.414;2022-08-01T06:18:33;24.50;51.40
61979;DHT22;47938;48.176;16.414;2022-08-01T06:20:59;24.70;50.50
61979;DHT22;47938;48.176;16.414;2022-08-01T06:23:24;25.20;50.00
61979;DHT22;47938;48.176;16.414;2022-08-01T06:25:53;25.30;49.20
61979;DHT22;47938;48.176;16.414;2022-08-01T06:28:19;25.60;48.50
61979;DHT22;47938;48.176;16.414;2022-08-01T06:30:44;25.70;47.90
61979;DHT22;47938;48.176;16.414;2022-08-01T06:33:10;25.80;48.00
61979;DHT22;47938;48.176;16.414;2022-08-01T06:35:35;25.90;47.70
61979;DHT22;47938;48.176;16.414;2022-08-01T06:38:01;25.90;47.70
61979;DHT22;47938;48.176;16.414;2022-08-01T06:40:27;26.10;47.60
61979;DHT22;47938;48.176;16.414;2022-08-01T06:42:52;26.20;47.20
61979;DHT22;47938;48.176;16.414;2022-08-01T06:45:18;26.20;47.10
61979;DHT22;47938;48.176;16.414;2022-08-01T06:47:44;26.30;46.70
61979;DHT22;47938;48.176;16.414;2022-08-01T06:50:09;26.30;47.00
61979;DHT22;47938;48.176;16.414;2022-08-01T06:52:35;26.30;46.70
61979;DHT22;47938;48.176;16.414;2022-08-01T06:55:01;26.30;46.80
61979;DHT22;47938;48.176;16.414;2022-08-01T06:57:26;26.30;46.90
61979;DHT22;47938;48.176;16.414;2022-08-01T06:59:52;26.40;46.60
61979;DHT22;47938;48.176;16.414;2022-08-01T07:02:18;26.60;46.30
61979;DHT22;47938;48.176;16.414;2022-08-01T07:04:43;26.80;45.60
61979;DHT22;47938;48.176;16.414;2022-08-01T07:07:09;27.40;45.30
61979;DHT22;47938;48.176;16.414;2022-08-01T07:09:34;28.20;43.50
61979;DHT22;47938;48.176;16.414;2022-08-01T07:12:00;28.60;41.90
61979;DHT22;47938;48.176;16.414;2022-08-01T07:14:25;29.00;41.70
61979;DHT22;47938;48.176;16.414;2022-08-01T07:16:51;29.40;40.30
61979;DHT22;47938;48.176;16.414;2022-08-01T07:19:16;29.30;39.80
61979;DHT22;47938;48.176;16.414;2022-08-01T07:21:42;29.10;39.50
61979;DHT22;47938;48.176;16.414;2022-08-01T07:24:08;29.20;39.80
61979;DHT22;47938;48.176;16.414;2022-08-01T07:26:34;29.20;38.70
61979;DHT22;47938;48.176;16.414;2022-08-01T07:29:00;29.20;39.00
61979;DHT22;47938;48.176;16.414;2022-08-01T07:31:25;29.30;38.40
61979;DHT22;47938;48.176;16.414;2022-08-01T07:33:51;29.20;38.00
61979;DHT22;47938;48.176;16.414;2022-08-01T07:36:17;28.60;39.10
61979;DHT22;47938;48.176;16.414;2022-08-01T07:38:43;28.30;38.40
61979;DHT22;47938;48.176;16.414;2022-08-01T07:41:08;27.80;39.90
61979;DHT22;47938;48.176;16.414;2022-08-01T07:43:34;27.40;39.90
61979;DHT22;47938;48.176;16.414;2022-08-01T07:45:59;27.20;41.00
61979;DHT22;47938;48.176;16.414;2022-08-01T07:48:25;27.20;41.40
61979;DHT22;47938;48.176;16.414;2022-08-01T07:50:50;27.20;41.40
61979;DHT22;47938;48.176;16.414;2022-08-01T07:53:16;27.00;41.60
61979;DHT22;47938;48.176;16.414;2022-08-01T07:55:42;27.00;41.80
61979;DHT22;47938;48.176;16.414;2022-08-01T07:58:07;27.10;41.90
61979;DHT22;47938;48.176;16.414;2022-08-01T08:00:33;27.00;44.70
61979;DHT22;47938;48.176;16.414;2022-08-01T08:02:58;26.50;46.00
61979;DHT22;47938;48.176;16.414;2022-08-01T08:05:24;26.40;47.20
61979;DHT22;47938;48.176;16.414;2022-08-01T08:07:49;26.50;47.60
61979;DHT22;47938;48.176;16.414;2022-08-01T08:10:15;26.60;47.20
61979;DHT22;47938;48.176;16.414;2022-08-01T08:12:40;26.30;47.40
61979;DHT22;47938;48.176;16.414;2022-08-01T08:15:06;26.30;47.80
61979;DHT22;47938;48.176;16.414;2022-08-01T08:17:31;26.30;47.60
61979;DHT22;47938;48.176;16.414;2022-08-01T08:19:57;26.40;47.80
61979;DHT22;47938;48.176;16.414;2022-08-01T08:22:22;26.50;47.70
61979;DHT22;47938;48.176;16.414;2022-08-01T08:24:48;26.60;47.20
61979;DHT22;47938;48.176;16.414;2022-08-01T08:27:14;26.60;47.20
61979;DHT22;47938;48.176;16.414;2022-08-01T08:29:39;26.60;46.60
61979;DHT22;47938;48.176;16.414;2022-08-01T08:32:05;26.60;46.60
61979;DHT22;47938;48.176;16.414;2022-08-01T08:34:30;26.70;45.80
61979;DHT22;47938;48.176;16.414;2022-08-01T08:36:56;26.70;45.40
61979;DHT22;47938;48.176;16.414;2022-08-01T08:39:22;26.70;44.90
61979;DHT22;47938;48.176;16.414;2022-08-01T08:41:48;26.70;44.90
61979;DHT22;47938;48.176;16.414;2022-08-01T08:44:13;26.90;44.70
61979;DHT22;47938;48.176;16.414;2022-08-01T08:46:46;27.20;44.20
61979;DHT22;47938;48.176;16.414;2022-08-01T08:49:13;27.60;43.50
61979;DHT22;47938;48.176;16.414;2022-08-01T08:51:41;28.00;42.00
61979;DHT22;47938;48.176;16.414;2022-08-01T08:54:06;28.10;41.50
61979;DHT22;47938;48.176;16.414;2022-08-01T08:56:32;28.40;41.20
61979;DHT22;47938;48.176;16.414;2022-08-01T08:59:00;28.60;41.30
61979;DHT22;47938;48.176;16.414;2022-08-01T09:01:25;28.90;40.60
61979;DHT22;47938;48.176;16.414;2022-08-01T09:03:51;29.10;40.30
61979;DHT22;47938;48.176;16.414;2022-08-01T09:06:17;29.20;40.10
61979;DHT22;47938;48.176;16.414;2022-08-01T09:08:42;29.30;39.60
61979;DHT22;47938;48.176;16.414;2022-08-01T09:11:08;29.40;39.30
61979;DHT22;47938;48.176;16.414;2022-08-01T09:13:33;29.40;39.30
61979;DHT22;47938;48.176;16.414;2022-08-01T09:15:59;29.30;39.30
61979;DHT22;47938;48.176;16.414;2022-08-01T09:19:03;29.20;39.60
61979;DHT22;47938;48.176;16.414;2022-08-01T09:21:17;29.20;39.80
61979;DHT22;47938;48.176;16.414;2022-08-01T09:23:47;29.30;39.80
61979;DHT22;47938;48.176;16.414;2022-08-01T09:26:14;29.30;39.70
61979;DHT22;47938;48.176;16.414;2022-08-01T09:28:39;29.30;39.70
61979;DHT22;47938;48.176;16.414;2022-08-01T09:31:06;29.50;39.40
61979;DHT22;47938;48.176;16.414;2022-08-01T09:33:51;29.30;38.80
61979;DHT22;47938;48.176;16.414;2022-08-01T09:36:18;28.90;39.50
61979;DHT22;47938;48.176;16.414;2022-08-01T09:38:43;29.10;40.00
61979;DHT22;47938;48.176;16.414;2022-08-01T09:41:09;29.30;39.70
61979;DHT22;47938;48.176;16.414;2022-08-01T09:43:34;29.20;39.60
61979;DHT22;47938;48.176;16.414;2022-08-01T09:46:04;29.10;39.10
61979;DHT22;47938;48.176;16.414;2022-08-01T09:48:30;28.90;39.00
61979;DHT22;47938;48.176;16.414;2022-08-01T09:50:57;29.10;39.10
61979;DHT22;47938;48.176;16.414;2022-08-01T09:53:22;29.00;39.50
61979;DHT22;47938;48.176;16.414;2022-08-01T09:55:48;29.10;39.20
61979;DHT22;47938;48.176;16.414;2022-08-01T09:58:13;29.50;39.20
61979;DHT22;47938;48.176;16.414;2022-08-01T10:00:39;29.70;38.30
61979;DHT22;47938;48.176;16.414;2022-08-01T10:03:21;29.60;38.20
61979;DHT22;47938;48.176;16.414;2022-08-01T10:05:47;29.40;38.60
61979;DHT22;47938;48.176;16.414;2022-08-01T10:08:13;29.30;38.80
61979;DHT22;47938;48.176;16.414;2022-08-01T10:10:39;29.50;39.20
61979;DHT22;47938;48.176;16.414;2022-08-01T10:13:04;29.60;38.40
61979;DHT22;47938;48.176;16.414;2022-08-01T10:15:31;29.40;40.00
61979;DHT22;47938;48.176;16.414;2022-08-01T10:17:58;29.80;38.90
61979;DHT22;47938;48.176;16.414;2022-08-01T10:20:24;29.60;39.50
61979;DHT22;47938;48.176;16.414;2022-08-01T10:22:51;29.60;39.20
61979;DHT22;47938;48.176;16.414;2022-08-01T10:25:17;30.00;38.60
61979;DHT22;47938;48.176;16.414;2022-08-01T10:27:43;30.40;37.60
61979;DHT22;47938;48.176;16.414;2022-08-01T10:30:09;30.40;36.80
61979;DHT22;47938;48.176;16.414;2022-08-01T10:32:35;30.20;37.70
61979;DHT22;47938;48.176;16.414;2022-08-01T10:35:01;30.00;37.70
61979;DHT22;47938;48.176;16.414;2022-08-01T10:37:27;29.70;39.00
61979;DHT22;47938;48.176;16.414;2022-08-01T10:39:52;29.80;37.90
61979;DHT22;47938;48.176;16.414;2022-08-01T10:42:18;29.50;38.60
61979;DHT22;47938;48.176;16.414;2022-08-01T10:44:44;29.40;39.30
61979;DHT22;47938;48.176;16.414;2022-08-01T10:47:10;29.70;37.90
61979;DHT22;47938;48.176;16.414;2022-08-01T10:49:44;29.80;37.70
61979;DHT22;47938;48.176;16.414;2022-08-01T10:52:14;29.80;37.80
61979;DHT22;47938;48.176;16.414;2022-08-01T10:54:39;30.10;38.10
61979;DHT22;47938;48.176;16.414;2022-08-01T10:57:05;30.20;36.90
61979;DHT22;47938;48.176;16.414;2022-08-01T10:59:30;30.00;37.00
61979;DHT22;47938;48.176;16.414;2022-08-01T11:02:01;29.20;39.00
61979;DHT22;47938;48.176;16.414;2022-08-01T11:07:13;29.30;39.70
61979;DHT22;47938;48.176;16.414;2022-08-01T11:09:42;29.50;38.70
61979;DHT22;47938;48.176;16.414;2022-08-01T11:12:11;29.30;39.80
61979;DHT22;47938;48.176;16.414;2022-08-01T11:17:35;30.00;37.50
61979;DHT22;47938;48.176;16.414;2022-08-01T11:20:05;30.30;37.00
61979;DHT22;47938;48.176;16.414;2022-08-01T11:22:30;30.20;37.00
61979;DHT22;47938;48.176;16.414;2022-08-01T11:24:56;30.40;36.90
61979;DHT22;47938;48.176;16.414;2022-08-01T11:27:23;29.80;36.40
61979;DHT22;47938;48.176;16.414;2022-08-01T11:32:33;29.30;38.10
61979;DHT22;47938;48.176;16.414;2022-08-01T11:34:59;29.50;37.00
61979;DHT22;47938;48.176;16.414;2022-08-01T11:37:25;29.40;35.60
61979;DHT22;47938;48.176;16.414;2022-08-01T11:42:34;29.80;35.60
61979;DHT22;47938;48.176;16.414;2022-08-01T11:45:00;30.10;35.60
61979;DHT22;47938;48.176;16.414;2022-08-01T11:53:02;29.50;36.50
61979;DHT22;47938;48.176;16.414;2022-08-01T11:55:28;29.20;36.70
61979;DHT22;47938;48.176;16.414;2022-08-01T12:00:25;29.30;36.80
61979;DHT22;47938;48.176;16.414;2022-08-01T12:03:01;29.40;36.70
61979;DHT22;47938;48.176;16.414;2022-08-01T12:05:31;29.40;37.20
61979;DHT22;47938;48.176;16.414;2022-08-01T12:07:56;29.60;37.10
61979;DHT22;47938;48.176;16.414;2022-08-01T12:10:26;29.70;36.80
61979;DHT22;47938;48.176;16.414;2022-08-01T12:12:53;29.20;37.20
61979;DHT22;47938;48.176;16.414;2022-08-01T12:15:20;29.00;37.70
61979;DHT22;47938;48.176;16.414;2022-08-01T12:17:46;29.00;38.30
61979;DHT22;47938;48.176;16.414;2022-08-01T12:20:19;28.80;38.20
61979;DHT22;47938;48.176;16.414;2022-08-01T12:22:44;28.80;38.60
61979;DHT22;47938;48.176;16.414;2022-08-01T12:25:11;28.30;39.00
61979;DHT22;47938;48.176;16.414;2022-08-01T12:27:37;28.20;39.60
61979;DHT22;47938;48.176;16.414;2022-08-01T12:30:07;28.20;39.70
61979;DHT22;47938;48.176;16.414;2022-08-01T12:32:33;28.20;40.10
61979;DHT22;47938;48.176;16.414;2022-08-01T12:35:10;28.10;40.20
61979;DHT22;47938;48.176;16.414;2022-08-01T12:37:39;28.20;40.50
61979;DHT22;47938;48.176;16.414;2022-08-01T12:40:12;28.20;40.60
61979;DHT22;47938;48.176;16.414;2022-08-01T12:42:38;28.20;40.70
61979;DHT22;47938;48.176;16.414;2022-08-01T12:45:05;28.10;41.20
61979;DHT22;47938;48.176;16.414;2022-08-01T12:47:31;28.20;41.10
61979;DHT22;47938;48.176;16.414;2022-08-01T12:49:56;28.20;39.90
61979;DHT22;47938;48.176;16.414;2022-08-01T12:52:22;28.40;39.80
61979;DHT22;47938;48.176;16.414;2022-08-01T12:57:25;28.50;37.70
61979;DHT22;47938;48.176;16.414;2022-08-01T13:00:04;28.60;37.20
61979;DHT22;47938;48.176;16.414;2022-08-01T13:02:33;28.60;37.70
61979;DHT22;47938;48.176;16.414;2022-08-01T13:04:59;28.40;38.90
61979;DHT22;47938;48.176;16.414;2022-08-01T13:07:37;28.20;40.70
61979;DHT22;47938;48.176;16.414;2022-08-01T13:10:03;28.20;41.90
61979;DHT22;47938;48.176;16.414;2022-08-01T13:12:29;28.10;41.30
61979;DHT22;47938;48.176;16.414;2022-08-01T13:14:54;28.10;41.30
61979;DHT22;47938;48.176;16.414;2022-08-01T13:17:29;28.30;41.40
61979;DHT22;47938;48.176;16.414;2022-08-01T13:19:55;28.30;41.50
61979;DHT22;47938;48.176;16.414;2022-08-01T13:22:20;28.30;42.00
61979;DHT22;47938;48.176;16.414;2022-08-01T13:25:08;28.40;42.20
61979;DHT22;47938;48.176;16.414;2022-08-01T13:27:34;28.60;42.20
61979;DHT22;47938;48.176;16.414;2022-08-01T13:30:09;28.70;42.10
61979;DHT22;47938;48.176;16.414;2022-08-01T13:32:35;28.80;42.40
61979;DHT22;47938;48.176;16.414;2022-08-01T13:35:04;28.70;42.60
61979;DHT22;47938;48.176;16.414;2022-08-01T13:37:30;28.80;42.70
61979;DHT22;47938;48.176;16.414;2022-08-01T13:39:56;28.60;42.90
61979;DHT22;47938;48.176;16.414;2022-08-01T13:42:21;28.60;43.10
61979;DHT22;47938;48.176;16.414;2022-08-01T13:44:46;28.80;42.60
61979;DHT22;47938;48.176;16.414;2022-08-01T13:47:12;28.70;41.20
61979;DHT22;47938;48.176;16.414;2022-08-01T13:49:37;28.70;41.40
61979;DHT22;47938;48.176;16.414;2022-08-01T13:52:03;28.90;41.20
61979;DHT22;47938;48.176;16.414;2022-08-01T13:54:29;29.00;41.60
61979;DHT22;47938;48.176;16.414;2022-08-01T13:56:54;29.00;40.80
61979;DHT22;47938;48.176;16.414;2022-08-01T13:59:20;29.20;40.00
61979;DHT22;47938;48.176;16.414;2022-08-01T14:01:45;29.30;39.60
61979;DHT22;47938;48.176;16.414;2022-08-01T14:04:11;29.30;38.10
61979;DHT22;47938;48.176;16.414;2022-08-01T14:06:36;29.50;37.60
61979;DHT22;47938;48.176;16.414;2022-08-01T14:09:02;29.70;37.80
61979;DHT22;47938;48.176;16.414;2022-08-01T14:11:28;29.80;37.10
61979;DHT22;47938;48.176;16.414;2022-08-01T14:13:53;29.90;36.60
61979;DHT22;47938;48.176;16.414;2022-08-01T14:16:19;30.00;36.70
61979;DHT22;47938;48.176;16.414;2022-08-01T14:18:45;30.10;36.50
61979;DHT22;47938;48.176;16.414;2022-08-01T14:21:10;30.00;36.80
61979;DHT22;47938;48.176;16.414;2022-08-01T14:23:36;29.90;36.80
61979;DHT22;47938;48.176;16.414;2022-08-01T14:26:02;30.00;37.10
61979;DHT22;47938;48.176;16.414;2022-08-01T14:28:27;29.70;37.00
61979;DHT22;47938;48.176;16.414;2022-08-01T14:30:53;29.50;37.00
61979;DHT22;47938;48.176;16.414;2022-08-01T14:33:19;29.40;36.80
61979;DHT22;47938;48.176;16.414;2022-08-01T14:35:44;29.10;37.30
61979;DHT22;47938;48.176;16.414;2022-08-01T14:38:10;29.00;37.80
61979;DHT22;47938;48.176;16.414;2022-08-01T14:40:35;29.10;37.80
61979;DHT22;47938;48.176;16.414;2022-08-01T14:43:01;29.20;37.60
61979;DHT22;47938;48.176;16.414;2022-08-01T14:45:26;29.10;37.10
61979;DHT22;47938;48.176;16.414;2022-08-01T14:47:52;29.20;37.20
61979;DHT22;47938;48.176;16.414;2022-08-01T14:50:17;29.20;37.10
61979;DHT22;47938;48.176;16.414;2022-08-01T14:52:43;29.30;37.20
61979;DHT22;47938;48.176;16.414;2022-08-01T14:55:09;29.30;36.90
61979;DHT22;47938;48.176;16.414;2022-08-01T14:57:35;29.40;37.00
61979;DHT22;47938;48.176;16.414;2022-08-01T15:00:02;29.50;37.00
61979;DHT22;47938;48.176;16.414;2022-08-01T15:02:28;29.70;36.80
61979;DHT22;47938;48.176;16.414;2022-08-01T15:04:53;29.70;36.00
61979;DHT22;47938;48.176;16.414;2022-08-01T15:07:19;29.50;36.30
61979;DHT22;47938;48.176;16.414;2022-08-01T15:09:45;29.60;36.80
61979;DHT22;47938;48.176;16.414;2022-08-01T15:12:11;29.60;36.60
61979;DHT22;47938;48.176;16.414;2022-08-01T15:14:36;29.60;36.10
61979;DHT22;47938;48.176;16.414;2022-08-01T15:17:02;29.60;37.20
61979;DHT22;47938;48.176;16.414;2022-08-01T15:19:27;29.80;36.10
61979;DHT22;47938;48.176;16.414;2022-08-01T15:21:52;29.90;36.10
61979;DHT22;47938;48.176;16.414;2022-08-01T15:24:18;30.10;35.70
61979;DHT22;47938;48.176;16.414;2022-08-01T15:26:43;30.20;35.90
61979;DHT22;47938;48.176;16.414;2022-08-01T15:29:09;30.20;36.20
61979;DHT22;47938;48.176;16.414;2022-08-01T15:31:34;30.20;36.10
61979;DHT22;47938;48.176;16.414;2022-08-01T15:34:00;30.30;36.10
61979;DHT22;47938;48.176;16.414;2022-08-01T15:36:25;30.30;36.00
61979;DHT22;47938;48.176;16.414;2022-08-01T15:38:51;30.30;35.80
61979;DHT22;47938;48.176;16.414;2022-08-01T15:41:16;30.10;36.10